sensor_id;sensor_type;location;lat;lon;timestamp;pressure;altitude;pressure_sealevel;temperature;humidity
24422;BME280;12600;53.326;-6.298;2023-07-29T00:01:29;99651.50;;;17.38;70.25
24422;BME280;12600;53.326;-6.298;2023-07-29T00:04:18;99650.66;;;17.34;70.58
24422;BME280;12600;53.326;-6.298;2023-07-29T00:07:08;99658.50;;;17.28;71.34
24422;BME280;12600;53.326;-6.298;2023-07-29T00:09:57;99659.66;;;17.27;71.32
24422;BME280;12600;53.326;-6.298;2023-07-29T00:12:52;99652.59;;;17.30;71.03
24422;BME280;12600;53.326;-6.298;2023-07-29T00:15:52;99643.00;;;17.17;72.30
24422;BME280;12600;53.326;-6.298;2023-07-29T00:18:46;99651.72;;;17.22;72.39
24422;BME280;12600;53.326;-6.298;2023-07-29T00:21:35;99644.16;;;17.16;73.03
24422;BME280;12600;53.326;-6.298;2023-07-29T00:24:25;99638.19;;;17.10;73.35
24422;BME280;12600;53.326;-6.298;2023-07-29T00:27:14;99635.06;;;17.15;72.83
24422;BME280;12600;53.326;-6.298;2023-07-29T00:30:05;99644.50;;;17.11;73.04
24422;BME280;12600;53.326;-6.298;2023-07-29T00:32:57;99639.84;;;17.18;72.69
24422;BME280;12600;53.326;-6.298;2023-07-29T00:35:47;99638.28;;;17.17;72.49
24422;BME280;12600;53.326;-6.298;2023-07-29T00:38:36;99638.19;;;17.10;72.91
24422;BME280;12600;53.326;-6.298;2023-07-29T00:41:26;99650.81;;;17.11;73.06
24422;BME280;12600;53.326;-6.298;2023-07-29T00:44:16;99629.44;;;17.04;73.07
24422;BME280;12600;53.326;-6.298;2023-07-29T00:47:06;99648.13;;;17.18;72.91
24422;BME280;12600;53.326;-6.298;2023-07-29T00:49:58;99643.03;;;17.20;72.72
24422;BME280;12600;53.326;-6.298;2023-07-29T00:52:48;99643.78;;;17.17;72.90
24422;BME280;12600;53.326;-6.298;2023-07-29T00:55:37;99627.59;;;17.16;72.76
24422;BME280;12600;53.326;-6.298;2023-07-29T00:58:27;99635.22;;;17.26;72.93
24422;BME280;12600;53.326;-6.298;2023-07-29T01:01:16;99635.53;;;17.21;73.08
24422;BME280;12600;53.326;-6.298;2023-07-29T01:04:06;99624.81;;;17.12;73.07
24422;BME280;12600;53.326;-6.298;2023-07-29T01:07:07;99645.03;;;17.23;73.23
24422;BME280;12600;53.326;-6.298;2023-07-29T01:10:04;99637.47;;;17.17;73.55
24422;BME280;12600;53.326;-6.298;2023-07-29T01:13:05;99635.56;;;17.24;73.77
24422;BME280;12600;53.326;-6.298;2023-07-29T01:15:58;99642.69;;;17.25;73.65
24422;BME280;12600;53.326;-6.298;2023-07-29T01:18:51;99640.28;;;17.20;73.44
24422;BME280;12600;53.326;-6.298;2023-07-29T01:21:42;99641.94;;;17.28;73.43
24422;BME280;12600;53.326;-6.298;2023-07-29T01:24:33;99639.16;;;17.28;73.06
24422;BME280;12600;53.326;-6.298;2023-07-29T01:27:22;99643.78;;;17.17;73.09
24422;BME280;12600;53.326;-6.298;2023-07-29T01:30:12;99638.28;;;17.17;72.95
24422;BME280;12600;53.326;-6.298;2023-07-29T01:33:09;99628.75;;;17.15;72.78
24422;BME280;12600;53.326;-6.298;2023-07-29T01:36:07;99611.63;;;16.98;72.86
24422;BME280;12600;53.326;-6.298;2023-07-29T01:39:01;99625.50;;;17.05;72.94
24422;BME280;12600;53.326;-6.298;2023-07-29T01:41:52;99630.22;;;17.01;73.03
24422;BME280;12600;53.326;-6.298;2023-07-29T01:44:42;99622.19;;;16.89;73.01
24422;BME280;12600;53.326;-6.298;2023-07-29T01:47:31;99608.34;;;16.86;72.97
24422;BME280;12600;53.326;-6.298;2023-07-29T01:50:21;99617.44;;;16.86;72.89
24422;BME280;12600;53.326;-6.298;2023-07-29T01:53:11;99619.31;;;16.78;73.19
24422;BME280;12600;53.326;-6.298;2023-07-29T01:56:01;99621.31;;;16.82;72.85
24422;BME280;12600;53.326;-6.298;2023-07-29T01:58:53;99622.06;;;16.78;73.03
24422;BME280;12600;53.326;-6.298;2023-07-29T02:01:42;99612.22;;;16.77;73.07
24422;BME280;12600;53.326;-6.298;2023-07-29T02:04:32;99622.44;;;16.77;73.09
24422;BME280;12600;53.326;-6.298;2023-07-29T02:07:22;99616.47;;;16.71;73.57
24422;BME280;12600;53.326;-6.298;2023-07-29T02:10:15;99620.00;;;16.72;73.45
24422;BME280;12600;53.326;-6.298;2023-07-29T02:13:04;99627.09;;;16.69;73.71
24422;BME280;12600;53.326;-6.298;2023-07-29T02:15:55;99628.53;;;16.63;73.87
24422;BME280;12600;53.326;-6.298;2023-07-29T02:18:44;99609.53;;;16.55;74.03
24422;BME280;12600;53.326;-6.298;2023-07-29T02:21:34;99620.59;;;16.58;74.42
24422;BME280;12600;53.326;-6.298;2023-07-29T02:24:23;99622.94;;;16.56;74.66
24422;BME280;12600;53.326;-6.298;2023-07-29T02:27:12;99639.06;;;16.54;74.83
24422;BME280;12600;53.326;-6.298;2023-07-29T02:30:03;99611.72;;;16.42;74.93
24422;BME280;12600;53.326;-6.298;2023-07-29T02:32:54;99638.19;;;16.46;75.33
24422;BME280;12600;53.326;-6.298;2023-07-29T02:35:43;99626.28;;;16.42;75.59
24422;BME280;12600;53.326;-6.298;2023-07-29T02:38:32;99631.00;;;16.42;75.39
24422;BME280;12600;53.326;-6.298;2023-07-29T02:41:22;99619.25;;;16.45;75.52
24422;BME280;12600;53.326;-6.298;2023-07-29T02:44:11;99629.84;;;16.43;75.41
24422;BME280;12600;53.326;-6.298;2023-07-29T02:47:00;99619.09;;;16.34;75.50
24422;BME280;12600;53.326;-6.298;2023-07-29T02:49:51;99623.50;;;16.39;75.36
24422;BME280;12600;53.326;-6.298;2023-07-29T02:52:40;99632.94;;;16.38;75.21
24422;BME280;12600;53.326;-6.298;2023-07-29T02:55:29;99614.38;;;16.35;75.38
24422;BME280;12600;53.326;-6.298;2023-07-29T02:58:19;99619.06;;;16.31;75.71
24422;BME280;12600;53.326;-6.298;2023-07-29T03:01:08;99607.63;;;16.29;75.28
24422;BME280;12600;53.326;-6.298;2023-07-29T03:03:58;99610.56;;;16.16;75.44
24422;BME280;12600;53.326;-6.298;2023-07-29T03:06:49;99601.56;;;16.19;75.35
24422;BME280;12600;53.326;-6.298;2023-07-29T03:09:38;99599.28;;;16.25;75.15
24422;BME280;12600;53.326;-6.298;2023-07-29T03:12:29;99606.00;;;16.28;74.84
24422;BME280;12600;53.326;-6.298;2023-07-29T03:15:19;99610.03;;;16.34;74.87
24422;BME280;12600;53.326;-6.298;2023-07-29T03:18:08;99607.28;;;16.34;74.66
24422;BME280;12600;53.326;-6.298;2023-07-29T03:20:58;99603.41;;;16.38;74.60
24422;BME280;12600;53.326;-6.298;2023-07-29T03:23:51;99605.75;;;16.36;74.24
24422;BME280;12600;53.326;-6.298;2023-07-29T03:26:40;99607.25;;;16.30;74.29
24422;BME280;12600;53.326;-6.298;2023-07-29T03:29:33;99604.00;;;16.25;73.85
24422;BME280;12600;53.326;-6.298;2023-07-29T03:32:22;99603.53;;;16.19;74.35
24422;BME280;12600;53.326;-6.298;2023-07-29T03:35:12;99596.91;;;16.23;73.81
24422;BME280;12600;53.326;-6.298;2023-07-29T03:38:01;99596.84;;;16.20;73.60
24422;BME280;12600;53.326;-6.298;2023-07-29T03:40:52;99592.50;;;16.19;73.59
24422;BME280;12600;53.326;-6.298;2023-07-29T03:43:42;99597.66;;;16.20;73.53
24422;BME280;12600;53.326;-6.298;2023-07-29T03:46:32;99599.13;;;16.14;73.37
24422;BME280;12600;53.326;-6.298;2023-07-29T03:49:22;99604.66;;;16.14;73.46
24422;BME280;12600;53.326;-6.298;2023-07-29T03:52:12;99599.72;;;16.01;73.18
24422;BME280;12600;53.326;-6.298;2023-07-29T03:55:02;99607.94;;;15.97;73.09
24422;BME280;12600;53.326;-6.298;2023-07-29T03:57:52;99608.78;;;16.01;73.18
24422;BME280;12600;53.326;-6.298;2023-07-29T04:00:42;99579.13;;;15.91;73.25
24422;BME280;12600;53.326;-6.298;2023-07-29T04:03:33;99604.47;;;16.04;73.04
24422;BME280;12600;53.326;-6.298;2023-07-29T04:06:23;99603.66;;;16.00;72.77
24422;BME280;12600;53.326;-6.298;2023-07-29T04:09:12;99596.94;;;15.97;72.77
24422;BME280;12600;53.326;-6.298;2023-07-29T04:12:02;99597.66;;;15.94;72.93
24422;BME280;12600;53.326;-6.298;2023-07-29T04:14:53;99585.72;;;15.86;72.55
24422;BME280;12600;53.326;-6.298;2023-07-29T04:17:43;99596.44;;;15.91;72.23
24422;BME280;12600;53.326;-6.298;2023-07-29T04:20:32;99599.59;;;15.93;72.37
24422;BME280;12600;53.326;-6.298;2023-07-29T04:23:22;99611.81;;;15.92;71.92
24422;BME280;12600;53.326;-6.298;2023-07-29T04:26:11;99607.09;;;15.93;72.10
24422;BME280;12600;53.326;-6.298;2023-07-29T04:29:01;99605.44;;;15.88;72.39
24422;BME280;12600;53.326;-6.298;2023-07-29T04:31:51;99615.22;;;15.86;72.66
24422;BME280;12600;53.326;-6.298;2023-07-29T04:34:41;99603.41;;;15.85;72.27
24422;BME280;12600;53.326;-6.298;2023-07-29T04:37:30;99595.00;;;15.75;72.56
24422;BME280;12600;53.326;-6.298;2023-07-29T04:40:19;99603.75;;;15.80;72.68
24422;BME280;12600;53.326;-6.298;2023-07-29T04:43:10;99612.19;;;15.68;73.21
24422;BME280;12600;53.326;-6.298;2023-07-29T04:46:00;99617.41;;;15.73;72.73
24422;BME280;12600;53.326;-6.298;2023-07-29T04:48:51;99612.19;;;15.68;72.97
24422;BME280;12600;53.326;-6.298;2023-07-29T04:51:40;99611.03;;;15.69;73.00
24422;BME280;12600;53.326;-6.298;2023-07-29T04:54:30;99619.78;;;15.75;72.88
24422;BME280;12600;53.326;-6.298;2023-07-29T04:57:19;99611.09;;;15.73;72.74
24422;BME280;12600;53.326;-6.298;2023-07-29T05:00:09;99624.88;;;15.73;72.49
24422;BME280;12600;53.326;-6.298;2023-07-29T05:02:59;99622.97;;;15.77;72.83
24422;BME280;12600;53.326;-6.298;2023-07-29T05:05:50;99610.25;;;15.69;72.50
24422;BME280;12600;53.326;-6.298;2023-07-29T05:08:41;99605.16;;;15.71;72.58
24422;BME280;12600;53.326;-6.298;2023-07-29T05:11:31;99615.44;;;15.74;72.56
24422;BME280;12600;53.326;-6.298;2023-07-29T05:14:20;99612.56;;;15.66;73.13
24422;BME280;12600;53.326;-6.298;2023-07-29T05:17:09;99619.72;;;15.71;72.88
24422;BME280;12600;53.326;-6.298;2023-07-29T05:20:00;99612.63;;;15.70;72.65
24422;BME280;12600;53.326;-6.298;2023-07-29T05:22:50;99629.22;;;15.74;72.66
24422;BME280;12600;53.326;-6.298;2023-07-29T05:25:40;99613.94;;;15.80;72.51
24422;BME280;12600;53.326;-6.298;2023-07-29T05:28:29;99616.63;;;15.73;72.36
24422;BME280;12600;53.326;-6.298;2023-07-29T05:31:19;99610.47;;;15.83;72.24
24422;BME280;12600;53.326;-6.298;2023-07-29T05:34:09;99609.72;;;15.86;71.88
24422;BME280;12600;53.326;-6.298;2023-07-29T05:36:59;99610.13;;;15.88;72.28
24422;BME280;12600;53.326;-6.298;2023-07-29T05:39:49;99599.38;;;15.79;72.58
24422;BME280;12600;53.326;-6.298;2023-07-29T05:42:39;99601.34;;;15.79;72.47
24422;BME280;12600;53.326;-6.298;2023-07-29T05:45:28;99591.59;;;15.85;72.42
24422;BME280;12600;53.326;-6.298;2023-07-29T05:48:20;99590.84;;;15.88;72.46
24422;BME280;12600;53.326;-6.298;2023-07-29T05:51:10;99582.97;;;15.86;72.11
24422;BME280;12600;53.326;-6.298;2023-07-29T05:54:00;99594.78;;;15.87;72.38
24422;BME280;12600;53.326;-6.298;2023-07-29T05:56:54;99602.00;;;15.95;72.09
24422;BME280;12600;53.326;-6.298;2023-07-29T05:59:43;99598.50;;;15.98;71.95
24422;BME280;12600;53.326;-6.298;2023-07-29T06:02:35;99604.91;;;16.06;71.87
24422;BME280;12600;53.326;-6.298;2023-07-29T06:05:27;99601.81;;;16.11;72.03
24422;BME280;12600;53.326;-6.298;2023-07-29T06:08:20;99593.63;;;16.14;71.77
24422;BME280;12600;53.326;-6.298;2023-07-29T06:11:09;99600.72;;;16.15;71.75
24422;BME280;12600;53.326;-6.298;2023-07-29T06:14:12;99600.13;;;16.29;71.36
24422;BME280;12600;53.326;-6.298;2023-07-29T06:17:05;99599.75;;;16.31;71.11
24422;BME280;12600;53.326;-6.298;2023-07-29T06:19:55;99610.53;;;16.43;70.92
24422;BME280;12600;53.326;-6.298;2023-07-29T06:22:50;99609.03;;;16.45;70.80
24422;BME280;12600;53.326;-6.298;2023-07-29T06:25:42;99602.28;;;16.43;70.63
24422;BME280;12600;53.326;-6.298;2023-07-29T06:28:33;99603.84;;;16.44;70.37
24422;BME280;12600;53.326;-6.298;2023-07-29T06:31:26;99601.94;;;16.48;70.15
24422;BME280;12600;53.326;-6.298;2023-07-29T06:34:22;99608.63;;;16.47;69.34
24422;BME280;12600;53.326;-6.298;2023-07-29T06:37:14;99626.75;;;16.48;69.15
24422;BME280;12600;53.326;-6.298;2023-07-29T06:40:05;99621.72;;;16.54;69.26
24422;BME280;12600;53.326;-6.298;2023-07-29T06:42:54;99617.84;;;16.58;69.17
24422;BME280;12600;53.326;-6.298;2023-07-29T06:45:44;99629.03;;;16.69;68.81
24422;BME280;12600;53.326;-6.298;2023-07-29T06:48:34;99620.41;;;16.74;68.42
24422;BME280;12600;53.326;-6.298;2023-07-29T06:51:24;99626.72;;;16.74;68.76
24422;BME280;12600;53.326;-6.298;2023-07-29T06:54:16;99602.47;;;16.57;68.51
24422;BME280;12600;53.326;-6.298;2023-07-29T06:57:06;99635.19;;;16.89;68.57
24422;BME280;12600;53.326;-6.298;2023-07-29T07:00:01;99646.91;;;16.82;68.61
24422;BME280;12600;53.326;-6.298;2023-07-29T07:02:51;99635.19;;;16.89;68.71
24422;BME280;12600;53.326;-6.298;2023-07-29T07:05:42;99626.59;;;16.94;68.03
24422;BME280;12600;53.326;-6.298;2023-07-29T07:08:31;99638.84;;;17.00;68.11
24422;BME280;12600;53.326;-6.298;2023-07-29T07:11:21;99639.66;;;17.00;67.70
24422;BME280;12600;53.326;-6.298;2023-07-29T07:14:10;99639.00;;;17.14;67.68
24422;BME280;12600;53.326;-6.298;2023-07-29T07:16:59;99642.53;;;17.11;67.37
24422;BME280;12600;53.326;-6.298;2023-07-29T07:19:49;99645.47;;;17.25;67.03
24422;BME280;12600;53.326;-6.298;2023-07-29T07:22:39;99641.94;;;17.28;67.02
24422;BME280;12600;53.326;-6.298;2023-07-29T07:25:29;99638.06;;;17.37;66.83
24422;BME280;12600;53.326;-6.298;2023-07-29T07:28:18;99635.31;;;17.37;66.34
24422;BME280;12600;53.326;-6.298;2023-07-29T07:31:07;99635.78;;;17.46;66.22
24422;BME280;12600;53.326;-6.298;2023-07-29T07:33:57;99653.59;;;17.52;66.17
24422;BME280;12600;53.326;-6.298;2023-07-29T07:36:46;99643.72;;;17.51;65.78
24422;BME280;12600;53.326;-6.298;2023-07-29T07:39:37;99640.78;;;17.70;65.40
24422;BME280;12600;53.326;-6.298;2023-07-29T07:42:26;99640.44;;;17.79;64.95
24422;BME280;12600;53.326;-6.298;2023-07-29T07:45:16;99650.84;;;17.96;64.50
24422;BME280;12600;53.326;-6.298;2023-07-29T07:48:05;99662.09;;;18.21;64.42
24422;BME280;12600;53.326;-6.298;2023-07-29T07:50:57;99662.31;;;18.53;64.19
24422;BME280;12600;53.326;-6.298;2023-07-29T07:53:48;99664.81;;;18.80;63.16
24422;BME280;12600;53.326;-6.298;2023-07-29T07:56:39;99671.25;;;19.09;61.41
24422;BME280;12600;53.326;-6.298;2023-07-29T07:59:28;99656.31;;;19.45;61.37
24422;BME280;12600;53.326;-6.298;2023-07-29T08:02:17;99669.84;;;19.72;59.64
24422;BME280;12600;53.326;-6.298;2023-07-29T08:05:08;99675.78;;;19.67;58.43
24422;BME280;12600;53.326;-6.298;2023-07-29T08:07:58;99680.91;;;19.72;58.12
24422;BME280;12600;53.326;-6.298;2023-07-29T08:10:47;99673.41;;;19.69;57.92
24422;BME280;12600;53.326;-6.298;2023-07-29T08:13:38;99678.94;;;19.72;57.61
24422;BME280;12600;53.326;-6.298;2023-07-29T08:16:27;99675.38;;;19.72;57.46
24422;BME280;12600;53.326;-6.298;2023-07-29T08:19:16;99673.81;;;19.74;57.19
24422;BME280;12600;53.326;-6.298;2023-07-29T08:22:09;99680.16;;;19.82;57.12
24422;BME280;12600;53.326;-6.298;2023-07-29T08:24:58;99671.03;;;20.14;57.64
24422;BME280;12600;53.326;-6.298;2023-07-29T08:27:48;99661.91;;;20.38;56.58
24422;BME280;12600;53.326;-6.298;2023-07-29T08:30:39;99679.31;;;20.56;55.40
24422;BME280;12600;53.326;-6.298;2023-07-29T08:33:30;99664.59;;;20.66;54.88
24422;BME280;12600;53.326;-6.298;2023-07-29T08:36:20;99683.59;;;20.86;54.73
24422;BME280;12600;53.326;-6.298;2023-07-29T08:39:09;99668.88;;;20.96;53.64
24422;BME280;12600;53.326;-6.298;2023-07-29T08:42:03;99674.69;;;21.27;52.86
24422;BME280;12600;53.326;-6.298;2023-07-29T08:44:54;99676.56;;;21.47;52.29
24422;BME280;12600;53.326;-6.298;2023-07-29T08:47:46;99698.28;;;21.67;52.33
24422;BME280;12600;53.326;-6.298;2023-07-29T08:50:37;99679.16;;;21.76;51.64
24422;BME280;12600;53.326;-6.298;2023-07-29T08:53:27;99697.72;;;21.90;51.31
24422;BME280;12600;53.326;-6.298;2023-07-29T08:56:16;99679.75;;;22.01;50.91
24422;BME280;12600;53.326;-6.298;2023-07-29T08:59:07;99684.31;;;21.77;50.15
24422;BME280;12600;53.326;-6.298;2023-07-29T09:01:57;99678.69;;;21.85;51.10
24422;BME280;12600;53.326;-6.298;2023-07-29T09:04:48;99692.88;;;22.01;50.46
24422;BME280;12600;53.326;-6.298;2023-07-29T09:07:38;99690.81;;;22.12;49.53
24422;BME280;12600;53.326;-6.298;2023-07-29T09:10:29;99694.97;;;22.34;49.90
24422;BME280;12600;53.326;-6.298;2023-07-29T09:13:19;99712.56;;;22.24;49.36
24422;BME280;12600;53.326;-6.298;2023-07-29T09:16:09;99710.84;;;22.38;48.96
24422;BME280;12600;53.326;-6.298;2023-07-29T09:19:02;99698.53;;;22.39;49.21
24422;BME280;12600;53.326;-6.298;2023-07-29T09:21:53;99696.78;;;22.52;49.20
24422;BME280;12600;53.326;-6.298;2023-07-29T09:24:42;99702.03;;;22.46;48.85
24422;BME280;12600;53.326;-6.298;2023-07-29T09:27:31;99697.31;;;22.40;49.33
24422;BME280;12600;53.326;-6.298;2023-07-29T09:30:26;99708.72;;;22.52;48.93
24422;BME280;12600;53.326;-6.298;2023-07-29T09:33:15;99702.50;;;22.75;48.91
24422;BME280;12600;53.326;-6.298;2023-07-29T09:36:09;99707.19;;;22.85;47.92
24422;BME280;12600;53.326;-6.298;2023-07-29T09:39:00;99706.78;;;23.17;47.91
24422;BME280;12600;53.326;-6.298;2023-07-29T09:41:51;99705.19;;;23.20;47.57
24422;BME280;12600;53.326;-6.298;2023-07-29T09:44:41;99692.91;;;23.14;47.66
24422;BME280;12600;53.326;-6.298;2023-07-29T09:47:30;99687.66;;;22.89;47.67
24422;BME280;12600;53.326;-6.298;2023-07-29T09:50:23;99698.72;;;22.58;48.19
24422;BME280;12600;53.326;-6.298;2023-07-29T09:53:14;99700.53;;;22.34;48.71
24422;BME280;12600;53.326;-6.298;2023-07-29T09:56:05;99709.53;;;22.08;49.79
24422;BME280;12600;53.326;-6.298;2023-07-29T09:58:56;99692.69;;;21.74;51.09
24422;BME280;12600;53.326;-6.298;2023-07-29T10:01:46;99705.88;;;21.59;51.58
24422;BME280;12600;53.326;-6.298;2023-07-29T10:04:35;99711.06;;;21.54;52.07
24422;BME280;12600;53.326;-6.298;2023-07-29T10:07:25;99717.16;;;21.31;52.33
24422;BME280;12600;53.326;-6.298;2023-07-29T10:10:14;99719.91;;;21.23;52.67
24422;BME280;12600;53.326;-6.298;2023-07-29T10:13:06;99715.53;;;21.33;52.87
24422;BME280;12600;53.326;-6.298;2023-07-29T10:15:56;99716.28;;;21.41;52.46
24422;BME280;12600;53.326;-6.298;2023-07-29T10:18:46;99724.19;;;21.53;52.29
24422;BME280;12600;53.326;-6.298;2023-07-29T10:21:36;99732.09;;;21.55;52.12
24422;BME280;12600;53.326;-6.298;2023-07-29T10:24:32;99723.13;;;21.29;51.85
24422;BME280;12600;53.326;-6.298;2023-07-29T10:27:24;99727.28;;;21.66;51.71
24422;BME280;12600;53.326;-6.298;2023-07-29T10:30:15;99728.25;;;21.97;51.37
24422;BME280;12600;53.326;-6.298;2023-07-29T10:33:05;99722.75;;;22.42;50.87
24422;BME280;12600;53.326;-6.298;2023-07-29T10:35:55;99730.66;;;22.47;49.74
24422;BME280;12600;53.326;-6.298;2023-07-29T10:38:44;99723.47;;;22.49;49.82
24422;BME280;12600;53.326;-6.298;2023-07-29T10:41:57;99724.59;;;22.14;49.87
24422;BME280;12600;53.326;-6.298;2023-07-29T10:44:48;99721.56;;;21.87;50.50
24422;BME280;12600;53.326;-6.298;2023-07-29T10:47:39;99714.56;;;21.68;50.50
24422;BME280;12600;53.326;-6.298;2023-07-29T10:50:29;99717.25;;;21.83;50.11
24422;BME280;12600;53.326;-6.298;2023-07-29T10:53:18;99728.31;;;21.90;49.90
24422;BME280;12600;53.326;-6.298;2023-07-29T10:56:08;99720.69;;;22.01;49.62
24422;BME280;12600;53.326;-6.298;2023-07-29T10:59:00;99717.75;;;21.67;49.91
24422;BME280;12600;53.326;-6.298;2023-07-29T11:01:53;99730.91;;;21.59;51.20
24422;BME280;12600;53.326;-6.298;2023-07-29T11:04:51;99749.69;;;21.34;52.00
24422;BME280;12600;53.326;-6.298;2023-07-29T11:07:45;99750.97;;;20.97;55.19
24422;BME280;12600;53.326;-6.298;2023-07-29T11:10:42;99755.44;;;20.59;59.06
24422;BME280;12600;53.326;-6.298;2023-07-29T11:13:34;99769.69;;;20.25;60.11
24422;BME280;12600;53.326;-6.298;2023-07-29T11:16:24;99763.31;;;19.82;60.69
24422;BME280;12600;53.326;-6.298;2023-07-29T11:19:16;99759.31;;;19.69;61.74
24422;BME280;12600;53.326;-6.298;2023-07-29T11:22:10;99760.81;;;19.55;62.26
24422;BME280;12600;53.326;-6.298;2023-07-29T11:24:59;99765.25;;;19.71;63.33
24422;BME280;12600;53.326;-6.298;2023-07-29T11:27:50;99759.38;;;20.36;64.49
24422;BME280;12600;53.326;-6.298;2023-07-29T11:30:40;99778.25;;;21.23;62.60
24422;BME280;12600;53.326;-6.298;2023-07-29T11:33:29;99769.78;;;21.63;58.64
24422;BME280;12600;53.326;-6.298;2023-07-29T11:36:19;99759.75;;;21.79;57.19
24422;BME280;12600;53.326;-6.298;2023-07-29T11:39:11;99765.91;;;22.12;56.33
24422;BME280;12600;53.326;-6.298;2023-07-29T11:42:00;99754.63;;;22.33;54.51
24422;BME280;12600;53.326;-6.298;2023-07-29T11:44:49;99770.84;;;22.83;53.19
24422;BME280;12600;53.326;-6.298;2023-07-29T11:47:39;99768.81;;;23.25;51.87
24422;BME280;12600;53.326;-6.298;2023-07-29T11:50:28;99784.84;;;23.82;51.50
24422;BME280;12600;53.326;-6.298;2023-07-29T11:53:18;99766.69;;;24.21;49.25
24422;BME280;12600;53.326;-6.298;2023-07-29T11:56:09;99768.31;;;24.69;48.09
24422;BME280;12600;53.326;-6.298;2023-07-29T11:59:01;99771.19;;;25.08;46.66
24422;BME280;12600;53.326;-6.298;2023-07-29T12:01:52;99761.50;;;25.53;45.47
24422;BME280;12600;53.326;-6.298;2023-07-29T12:04:44;99768.06;;;25.62;44.47
24422;BME280;12600;53.326;-6.298;2023-07-29T12:07:35;99776.25;;;25.73;43.55
24422;BME280;12600;53.326;-6.298;2023-07-29T12:10:25;99774.06;;;25.81;43.85
24422;BME280;12600;53.326;-6.298;2023-07-29T12:13:18;99757.41;;;26.10;43.86
24422;BME280;12600;53.326;-6.298;2023-07-29T12:16:07;99758.03;;;26.17;42.88
24422;BME280;12600;53.326;-6.298;2023-07-29T12:19:00;99754.34;;;26.20;41.56
24422;BME280;12600;53.326;-6.298;2023-07-29T12:21:50;99771.94;;;26.54;41.53
24422;BME280;12600;53.326;-6.298;2023-07-29T12:24:43;99762.56;;;26.60;40.33
24422;BME280;12600;53.326;-6.298;2023-07-29T12:27:32;99769.53;;;26.39;40.30
24422;BME280;12600;53.326;-6.298;2023-07-29T12:30:25;99774.81;;;26.01;41.41
24422;BME280;12600;53.326;-6.298;2023-07-29T12:33:33;99765.63;;;25.64;42.24
24422;BME280;12600;53.326;-6.298;2023-07-29T12:36:45;99752.91;;;25.24;42.50
24422;BME280;12600;53.326;-6.298;2023-07-29T12:39:40;99757.19;;;25.08;43.07
24422;BME280;12600;53.326;-6.298;2023-07-29T12:42:36;99754.22;;;24.76;42.88
24422;BME280;12600;53.326;-6.298;2023-07-29T12:45:27;99751.81;;;24.54;43.00
24422;BME280;12600;53.326;-6.298;2023-07-29T12:48:19;99747.69;;;24.12;43.91
24422;BME280;12600;53.326;-6.298;2023-07-29T12:51:11;99764.22;;;23.76;44.78
24422;BME280;12600;53.326;-6.298;2023-07-29T12:54:03;99753.38;;;23.51;45.23
24422;BME280;12600;53.326;-6.298;2023-07-29T12:56:53;99800.66;;;23.28;45.63
24422;BME280;12600;53.326;-6.298;2023-07-29T12:59:42;99792.34;;;22.83;49.75
24422;BME280;12600;53.326;-6.298;2023-07-29T13:02:33;99774.25;;;22.16;53.91
24422;BME280;12600;53.326;-6.298;2023-07-29T13:05:25;99795.81;;;21.94;56.00
24422;BME280;12600;53.326;-6.298;2023-07-29T13:08:14;99802.78;;;21.54;56.70
24422;BME280;12600;53.326;-6.298;2023-07-29T13:11:06;99799.31;;;21.28;57.47
24422;BME280;12600;53.326;-6.298;2023-07-29T13:13:56;99798.59;;;21.03;59.24
24422;BME280;12600;53.326;-6.298;2023-07-29T13:16:45;99797.44;;;20.72;60.61
24422;BME280;12600;53.326;-6.298;2023-07-29T13:19:36;99801.41;;;20.71;60.98
24422;BME280;12600;53.326;-6.298;2023-07-29T13:22:25;99789.88;;;20.93;60.69
24422;BME280;12600;53.326;-6.298;2023-07-29T13:25:15;99818.00;;;21.10;60.00
24422;BME280;12600;53.326;-6.298;2023-07-29T13:28:04;99811.94;;;21.47;58.19
24422;BME280;12600;53.326;-6.298;2023-07-29T13:30:53;99790.97;;;22.05;55.33
24422;BME280;12600;53.326;-6.298;2023-07-29T13:33:43;99792.34;;;22.86;54.04
24422;BME280;12600;53.326;-6.298;2023-07-29T13:36:33;99791.63;;;23.51;51.92
24422;BME280;12600;53.326;-6.298;2023-07-29T13:39:23;99805.66;;;23.74;45.82
24422;BME280;12600;53.326;-6.298;2023-07-29T13:42:12;99824.19;;;23.88;42.88
24422;BME280;12600;53.326;-6.298;2023-07-29T13:45:03;99816.72;;;24.39;41.88
24422;BME280;12600;53.326;-6.298;2023-07-29T13:47:52;99812.41;;;25.04;41.42
24422;BME280;12600;53.326;-6.298;2023-07-29T13:50:42;99829.97;;;25.01;40.06
24422;BME280;12600;53.326;-6.298;2023-07-29T13:53:33;99819.28;;;25.20;40.15
24422;BME280;12600;53.326;-6.298;2023-07-29T13:56:22;99808.53;;;25.38;40.15
24422;BME280;12600;53.326;-6.298;2023-07-29T13:59:11;99827.31;;;25.57;39.19
24422;BME280;12600;53.326;-6.298;2023-07-29T14:02:01;99827.31;;;25.57;39.51
24422;BME280;12600;53.326;-6.298;2023-07-29T14:04:50;99830.91;;;25.78;39.49
24422;BME280;12600;53.326;-6.298;2023-07-29T14:07:40;99828.00;;;26.01;38.97
24422;BME280;12600;53.326;-6.298;2023-07-29T14:10:30;99832.38;;;26.02;38.86
24422;BME280;12600;53.326;-6.298;2023-07-29T14:13:20;99825.91;;;26.21;38.01
24422;BME280;12600;53.326;-6.298;2023-07-29T14:16:09;99816.31;;;26.39;38.29
24422;BME280;12600;53.326;-6.298;2023-07-29T14:18:58;99817.47;;;26.41;38.13
24422;BME280;12600;53.326;-6.298;2023-07-29T14:21:48;99811.00;;;26.44;37.97
24422;BME280;12600;53.326;-6.298;2023-07-29T14:24:40;99804.25;;;26.42;38.04
24422;BME280;12600;53.326;-6.298;2023-07-29T14:27:30;99834.34;;;26.38;37.93
24422;BME280;12600;53.326;-6.298;2023-07-29T14:30:20;99828.69;;;26.05;38.22
24422;BME280;12600;53.326;-6.298;2023-07-29T14:33:10;99822.56;;;25.94;38.10
24422;BME280;12600;53.326;-6.298;2023-07-29T14:35:59;99833.09;;;25.66;38.92
24422;BME280;12600;53.326;-6.298;2023-07-29T14:38:48;99838.88;;;25.39;38.94
24422;BME280;12600;53.326;-6.298;2023-07-29T14:41:38;99839.56;;;25.00;39.39
24422;BME280;12600;53.326;-6.298;2023-07-29T14:44:28;99837.00;;;24.90;39.74
24422;BME280;12600;53.326;-6.298;2023-07-29T14:47:18;99834.50;;;24.72;40.04
24422;BME280;12600;53.326;-6.298;2023-07-29T14:50:08;99834.84;;;24.50;40.35
24422;BME280;12600;53.326;-6.298;2023-07-29T14:52:57;99841.56;;;24.57;40.66